Terminal Aerodrome Forecast
Issued by NWS

Home | Current Version | Previous Version | Text Only | Print | Product List | Glossary On
Versions: 1 2 3 4 5 6 7 8 9 10 11 12 13 14 15 16 17 18
000
FTUS44 KLZK 201141
TAFHRO
TAF
KHRO 201141Z 2012/2112 19015G25KT 6SM SHRA VCTS SCT015 OVC025CB
      WS020/20050KT
     FM201600 20015G25KT 6SM -SHRA VCTS OVC015CB
     FM202200 19011G18KT 6SM TSRA OVC009CB
     FM210000 23008G15KT 3SM TSRA BR OVC005CB
     FM210600 32011G18KT 3SM TSRA BR OVC005CB=

USA.gov is the U.S. government's official web portal to all federal, state and local government web resources and services.